sensor_id;sensor_type;location;lat;lon;timestamp;pressure;altitude;pressure_sealevel;temperature;humidity
36798;BME280;22748;8.426;99.512;2023-06-04T00:01:18;100692.69;;;29.23;70.35
36798;BME280;22748;8.426;99.512;2023-06-04T00:03:50;100698.69;;;29.19;70.82
36798;BME280;22748;8.426;99.512;2023-06-04T00:06:21;100704.47;;;29.22;70.38
36798;BME280;22748;8.426;99.512;2023-06-04T00:08:53;100703.66;;;29.15;71.04
36798;BME280;22748;8.426;99.512;2023-06-04T00:11:25;100703.25;;;29.18;70.83
36798;BME280;22748;8.426;99.512;2023-06-04T00:13:56;100702.41;;;29.18;70.65
36798;BME280;22748;8.426;99.512;2023-06-04T00:16:26;100698.72;;;29.12;70.91
36798;BME280;22748;8.426;99.512;2023-06-04T00:18:58;100704.47;;;29.16;71.17
36798;BME280;22748;8.426;99.512;2023-06-04T00:21:29;100705.69;;;29.26;70.75
36798;BME280;22748;8.426;99.512;2023-06-04T00:24:00;100715.22;;;29.22;71.50
36798;BME280;22748;8.426;99.512;2023-06-04T00:26:30;100713.56;;;29.28;71.50
36798;BME280;22748;8.426;99.512;2023-06-04T00:29:02;100712.56;;;29.09;71.55
36798;BME280;22748;8.426;99.512;2023-06-04T00:31:32;100709.47;;;29.12;71.55
36798;BME280;22748;8.426;99.512;2023-06-04T00:34:03;100714.38;;;29.28;71.01
36798;BME280;22748;8.426;99.512;2023-06-04T00:36:34;100715.63;;;29.32;71.39
36798;BME280;22748;8.426;99.512;2023-06-04T00:39:06;100719.13;;;29.40;71.81
36798;BME280;22748;8.426;99.512;2023-06-04T00:41:39;100724.09;;;29.43;72.00
36798;BME280;22748;8.426;99.512;2023-06-04T00:44:09;100734.63;;;29.51;71.89
36798;BME280;22748;8.426;99.512;2023-06-04T00:46:40;100737.50;;;29.56;71.88
36798;BME280;22748;8.426;99.512;2023-06-04T00:49:13;100742.06;;;29.62;71.51
36798;BME280;22748;8.426;99.512;2023-06-04T00:51:44;100748.28;;;29.56;71.38
36798;BME280;22748;8.426;99.512;2023-06-04T00:54:18;100742.09;;;29.49;71.53
36798;BME280;22748;8.426;99.512;2023-06-04T00:56:51;100748.28;;;29.49;71.63
36798;BME280;22748;8.426;99.512;2023-06-04T00:59:22;100755.91;;;29.59;71.81
36798;BME280;22748;8.426;99.512;2023-06-04T01:01:58;100756.16;;;29.51;71.00
36798;BME280;22748;8.426;99.512;2023-06-04T01:04:36;100758.22;;;29.69;70.80
36798;BME280;22748;8.426;99.512;2023-06-04T01:07:10;100755.06;;;29.79;70.93
36798;BME280;22748;8.426;99.512;2023-06-04T01:09:45;100757.31;;;29.88;70.41
36798;BME280;22748;8.426;99.512;2023-06-04T01:12:15;100752.78;;;29.82;70.70
36798;BME280;22748;8.426;99.512;2023-06-04T01:14:46;100762.50;;;29.90;70.77
36798;BME280;22748;8.426;99.512;2023-06-04T01:17:20;100757.28;;;30.02;69.99
36798;BME280;22748;8.426;99.512;2023-06-04T01:20:06;100753.50;;;30.09;69.97
36798;BME280;22748;8.426;99.512;2023-06-04T01:22:43;100762.28;;;29.85;71.24
36798;BME280;22748;8.426;99.512;2023-06-04T01:25:21;100759.81;;;29.90;71.21
36798;BME280;22748;8.426;99.512;2023-06-04T01:27:55;100762.22;;;30.05;70.54
36798;BME280;22748;8.426;99.512;2023-06-04T01:30:31;100773.44;;;30.02;71.05
36798;BME280;22748;8.426;99.512;2023-06-04T01:33:01;100777.16;;;30.07;70.76
36798;BME280;22748;8.426;99.512;2023-06-04T01:35:34;100786.84;;;30.15;70.55
36798;BME280;22748;8.426;99.512;2023-06-04T01:38:04;100770.44;;;30.30;70.17
36798;BME280;22748;8.426;99.512;2023-06-04T01:40:37;100776.19;;;30.40;69.90
36798;BME280;22748;8.426;99.512;2023-06-04T01:43:09;100773.00;;;30.50;69.45
36798;BME280;22748;8.426;99.512;2023-06-04T01:45:42;100777.75;;;30.54;69.03
36798;BME280;22748;8.426;99.512;2023-06-04T01:48:16;100779.81;;;30.52;68.45
36798;BME280;22748;8.426;99.512;2023-06-04T01:50:47;100789.13;;;30.57;67.89
36798;BME280;22748;8.426;99.512;2023-06-04T01:53:18;100781.66;;;30.59;68.29
36798;BME280;22748;8.426;99.512;2023-06-04T01:55:50;100784.75;;;30.62;68.33
36798;BME280;22748;8.426;99.512;2023-06-04T01:58:20;100784.75;;;30.62;68.03
36798;BME280;22748;8.426;99.512;2023-06-04T02:00:56;100785.75;;;30.68;67.88
36798;BME280;22748;8.426;99.512;2023-06-04T02:03:32;100778.47;;;30.75;68.16
36798;BME280;22748;8.426;99.512;2023-06-04T02:06:05;100782.13;;;30.81;67.94
36798;BME280;22748;8.426;99.512;2023-06-04T02:08:37;100790.88;;;30.76;67.86
36798;BME280;22748;8.426;99.512;2023-06-04T02:11:11;100789.41;;;30.80;67.80
36798;BME280;22748;8.426;99.512;2023-06-04T02:13:42;100794.94;;;30.85;67.31
36798;BME280;22748;8.426;99.512;2023-06-04T02:16:11;100802.44;;;30.83;67.45
36798;BME280;22748;8.426;99.512;2023-06-04T02:18:42;100791.66;;;30.83;66.85
36798;BME280;22748;8.426;99.512;2023-06-04T02:21:13;100805.34;;;30.88;67.52
36798;BME280;22748;8.426;99.512;2023-06-04T02:23:44;100799.09;;;30.94;67.28
36798;BME280;22748;8.426;99.512;2023-06-04T02:26:16;100799.09;;;30.94;67.25
36798;BME280;22748;8.426;99.512;2023-06-04T02:28:47;100797.88;;;30.90;66.93
36798;BME280;22748;8.426;99.512;2023-06-04T02:31:18;100803.44;;;30.95;66.82
36798;BME280;22748;8.426;99.512;2023-06-04T02:33:50;100805.66;;;30.99;67.08
36798;BME280;22748;8.426;99.512;2023-06-04T02:36:20;100799.84;;;31.02;66.82
36798;BME280;22748;8.426;99.512;2023-06-04T02:38:51;100805.25;;;31.02;66.32
36798;BME280;22748;8.426;99.512;2023-06-04T02:41:24;100808.97;;;31.01;66.70
36798;BME280;22748;8.426;99.512;2023-06-04T02:43:55;100805.91;;;30.97;67.13
36798;BME280;22748;8.426;99.512;2023-06-04T02:46:25;100798.63;;;30.98;66.47
36798;BME280;22748;8.426;99.512;2023-06-04T02:48:56;100803.38;;;31.02;65.72
36798;BME280;22748;8.426;99.512;2023-06-04T02:51:25;100809.38;;;31.04;65.57
36798;BME280;22748;8.426;99.512;2023-06-04T02:53:55;100802.50;;;31.08;65.18
36798;BME280;22748;8.426;99.512;2023-06-04T02:56:29;100800.19;;;31.12;65.60
36798;BME280;22748;8.426;99.512;2023-06-04T02:59:00;100802.09;;;31.05;65.82
36798;BME280;22748;8.426;99.512;2023-06-04T03:01:31;100799.41;;;31.05;65.79
36798;BME280;22748;8.426;99.512;2023-06-04T03:04:01;100801.91;;;31.06;65.51
36798;BME280;22748;8.426;99.512;2023-06-04T03:06:31;100794.81;;;31.12;65.70
36798;BME280;22748;8.426;99.512;2023-06-04T03:09:01;100792.47;;;31.15;65.13
36798;BME280;22748;8.426;99.512;2023-06-04T03:11:37;100788.50;;;31.18;65.47
36798;BME280;22748;8.426;99.512;2023-06-04T03:14:08;100792.25;;;31.17;65.89
36798;BME280;22748;8.426;99.512;2023-06-04T03:16:38;100789.78;;;31.15;65.73
36798;BME280;22748;8.426;99.512;2023-06-04T03:19:14;100777.50;;;31.20;65.58
36798;BME280;22748;8.426;99.512;2023-06-04T03:21:45;100787.25;;;31.21;65.52
36798;BME280;22748;8.426;99.512;2023-06-04T03:24:20;100779.97;;;31.21;65.65
36798;BME280;22748;8.426;99.512;2023-06-04T03:26:58;100778.72;;;31.24;65.26
36798;BME280;22748;8.426;99.512;2023-06-04T03:29:29;100762.72;;;31.22;65.12
36798;BME280;22748;8.426;99.512;2023-06-04T03:31:59;100763.13;;;31.26;65.23
36798;BME280;22748;8.426;99.512;2023-06-04T03:34:29;100766.78;;;31.31;64.48
36798;BME280;22748;8.426;99.512;2023-06-04T03:36:59;100765.91;;;31.37;64.49
36798;BME280;22748;8.426;99.512;2023-06-04T03:39:33;100760.72;;;31.43;64.21
36798;BME280;22748;8.426;99.512;2023-06-04T03:42:05;100769.63;;;31.43;63.95
36798;BME280;22748;8.426;99.512;2023-06-04T03:44:36;100768.13;;;31.47;64.06
36798;BME280;22748;8.426;99.512;2023-06-04T03:47:07;100754.25;;;31.44;63.87
36798;BME280;22748;8.426;99.512;2023-06-04T03:49:37;100758.78;;;31.50;63.55
36798;BME280;22748;8.426;99.512;2023-06-04T03:52:08;100747.38;;;31.48;63.82
36798;BME280;22748;8.426;99.512;2023-06-04T03:54:42;100746.69;;;31.52;63.34
36798;BME280;22748;8.426;99.512;2023-06-04T03:57:20;100745.41;;;31.55;63.25
36798;BME280;22748;8.426;99.512;2023-06-04T03:59:50;100737.31;;;31.55;63.23
36798;BME280;22748;8.426;99.512;2023-06-04T04:02:20;100733.72;;;31.61;63.27
36798;BME280;22748;8.426;99.512;2023-06-04T04:04:54;100732.00;;;31.67;63.06
36798;BME280;22748;8.426;99.512;2023-06-04T04:07:26;100729.91;;;31.69;63.37
36798;BME280;22748;8.426;99.512;2023-06-04T04:09:56;100733.94;;;31.60;63.63
36798;BME280;22748;8.426;99.512;2023-06-04T04:12:27;100731.47;;;31.58;62.94
36798;BME280;22748;8.426;99.512;2023-06-04T04:14:57;100732.44;;;31.64;62.09
36798;BME280;22748;8.426;99.512;2023-06-04T04:17:28;100717.53;;;31.61;62.13
36798;BME280;22748;8.426;99.512;2023-06-04T04:19:58;100722.03;;;31.67;61.71
36798;BME280;22748;8.426;99.512;2023-06-04T04:22:34;100711.53;;;31.59;62.20
36798;BME280;22748;8.426;99.512;2023-06-04T04:25:05;100709.88;;;31.58;62.46
36798;BME280;22748;8.426;99.512;2023-06-04T04:27:38;100712.13;;;31.61;62.15
36798;BME280;22748;8.426;99.512;2023-06-04T04:30:09;100709.72;;;31.71;61.40
36798;BME280;22748;8.426;99.512;2023-06-04T04:32:42;100706.25;;;31.83;61.03
36798;BME280;22748;8.426;99.512;2023-06-04T04:35:16;100703.25;;;31.72;61.55
36798;BME280;22748;8.426;99.512;2023-06-04T04:37:47;100699.06;;;31.76;61.53
36798;BME280;22748;8.426;99.512;2023-06-04T04:40:17;100696.06;;;31.85;61.42
36798;BME280;22748;8.426;99.512;2023-06-04T04:42:49;100684.34;;;31.91;60.99
36798;BME280;22748;8.426;99.512;2023-06-04T04:45:19;100683.16;;;31.87;61.38
36798;BME280;22748;8.426;99.512;2023-06-04T04:47:50;100679.84;;;31.85;61.57
36798;BME280;22748;8.426;99.512;2023-06-04T04:50:23;100672.72;;;31.90;60.70
36798;BME280;22748;8.426;99.512;2023-06-04T04:52:58;100669.94;;;31.97;60.79
36798;BME280;22748;8.426;99.512;2023-06-04T04:55:29;100653.13;;;31.95;61.05
36798;BME280;22748;8.426;99.512;2023-06-04T04:58:01;100665.75;;;32.01;60.91
36798;BME280;22748;8.426;99.512;2023-06-04T05:00:31;100648.09;;;31.98;61.02
36798;BME280;22748;8.426;99.512;2023-06-04T05:03:02;100651.78;;;32.04;60.48
36798;BME280;22748;8.426;99.512;2023-06-04T05:05:39;100640.06;;;32.10;60.39
36798;BME280;22748;8.426;99.512;2023-06-04T05:08:12;100630.19;;;32.16;60.37
36798;BME280;22748;8.426;99.512;2023-06-04T05:10:43;100622.22;;;32.21;60.54
36798;BME280;22748;8.426;99.512;2023-06-04T05:13:16;100617.31;;;32.30;60.16
36798;BME280;22748;8.426;99.512;2023-06-04T05:15:48;100606.13;;;32.26;60.39
36798;BME280;22748;8.426;99.512;2023-06-04T05:18:20;100604.50;;;32.25;60.07
36798;BME280;22748;8.426;99.512;2023-06-04T05:20:56;100607.78;;;32.27;60.00
36798;BME280;22748;8.426;99.512;2023-06-04T05:23:28;100585.09;;;32.28;59.14
36798;BME280;22748;8.426;99.512;2023-06-04T05:26:01;100577.94;;;32.34;58.95
36798;BME280;22748;8.426;99.512;2023-06-04T05:28:34;100584.66;;;32.43;59.46
36798;BME280;22748;8.426;99.512;2023-06-04T05:31:06;100569.13;;;32.50;59.09
36798;BME280;22748;8.426;99.512;2023-06-04T05:33:37;100572.56;;;32.57;59.02
36798;BME280;22748;8.426;99.512;2023-06-04T05:36:10;100554.22;;;32.59;58.48
36798;BME280;22748;8.426;99.512;2023-06-04T05:38:44;100549.41;;;32.62;58.10
36798;BME280;22748;8.426;99.512;2023-06-04T05:41:15;100547.06;;;32.65;57.69
36798;BME280;22748;8.426;99.512;2023-06-04T05:43:48;100541.28;;;32.73;57.81
36798;BME280;22748;8.426;99.512;2023-06-04T05:46:20;100535.75;;;32.80;57.77
36798;BME280;22748;8.426;99.512;2023-06-04T05:48:52;100538.56;;;32.85;57.55
36798;BME280;22748;8.426;99.512;2023-06-04T05:51:23;100535.84;;;32.85;57.63
36798;BME280;22748;8.426;99.512;2023-06-04T05:53:53;100523.72;;;32.88;57.12
36798;BME280;22748;8.426;99.512;2023-06-04T05:56:23;100519.63;;;32.85;56.58
36798;BME280;22748;8.426;99.512;2023-06-04T05:58:55;100511.50;;;32.85;56.70
36798;BME280;22748;8.426;99.512;2023-06-04T06:01:25;100515.16;;;32.91;56.39
36798;BME280;22748;8.426;99.512;2023-06-04T06:04:02;100505.75;;;32.82;56.52
36798;BME280;22748;8.426;99.512;2023-06-04T06:06:34;100504.47;;;32.84;56.00
36798;BME280;22748;8.426;99.512;2023-06-04T06:09:06;100511.06;;;32.88;55.73
36798;BME280;22748;8.426;99.512;2023-06-04T06:11:37;100495.97;;;32.92;55.25
36798;BME280;22748;8.426;99.512;2023-06-04T06:14:15;100498.78;;;32.97;54.36
36798;BME280;22748;8.426;99.512;2023-06-04T06:16:53;100493.97;;;32.99;53.87
36798;BME280;22748;8.426;99.512;2023-06-04T06:19:25;100488.63;;;33.05;53.86
36798;BME280;22748;8.426;99.512;2023-06-04T06:21:57;100490.28;;;33.06;53.20
36798;BME280;22748;8.426;99.512;2023-06-04T06:24:27;100491.00;;;33.13;53.65
36798;BME280;22748;8.426;99.512;2023-06-04T06:26:58;100479.22;;;33.19;53.32
36798;BME280;22748;8.426;99.512;2023-06-04T06:29:30;100488.97;;;33.20;52.52
36798;BME280;22748;8.426;99.512;2023-06-04T06:32:07;100478.13;;;33.20;52.78
36798;BME280;22748;8.426;99.512;2023-06-04T06:34:39;100477.91;;;33.22;53.28
36798;BME280;22748;8.426;99.512;2023-06-04T06:37:09;100474.97;;;33.23;52.44
36798;BME280;22748;8.426;99.512;2023-06-04T06:39:39;100470.09;;;33.25;52.37
36798;BME280;22748;8.426;99.512;2023-06-04T06:42:09;100459.47;;;33.35;52.04
36798;BME280;22748;8.426;99.512;2023-06-04T06:44:41;100462.28;;;33.40;52.54
36798;BME280;22748;8.426;99.512;2023-06-04T06:47:11;100467.78;;;33.46;52.13
36798;BME280;22748;8.426;99.512;2023-06-04T06:49:42;100473.19;;;33.46;52.13
36798;BME280;22748;8.426;99.512;2023-06-04T06:52:12;100455.56;;;33.43;52.43
36798;BME280;22748;8.426;99.512;2023-06-04T06:54:48;100459.72;;;33.51;52.32
36798;BME280;22748;8.426;99.512;2023-06-04T06:57:20;100451.72;;;33.56;52.61
36798;BME280;22748;8.426;99.512;2023-06-04T06:59:53;100443.81;;;33.54;52.42
36798;BME280;22748;8.426;99.512;2023-06-04T07:02:24;100446.63;;;33.59;52.41
36798;BME280;22748;8.426;99.512;2023-06-04T07:04:58;100444.03;;;33.65;52.71
36798;BME280;22748;8.426;99.512;2023-06-04T07:07:34;100438.28;;;33.61;53.03
36798;BME280;22748;8.426;99.512;2023-06-04T07:10:06;100431.84;;;33.50;53.59
36798;BME280;22748;8.426;99.512;2023-06-04T07:12:37;100421.69;;;33.40;53.57
36798;BME280;22748;8.426;99.512;2023-06-04T07:15:10;100413.06;;;33.44;53.28
36798;BME280;22748;8.426;99.512;2023-06-04T07:17:44;100411.25;;;33.49;53.42
36798;BME280;22748;8.426;99.512;2023-06-04T07:20:17;100408.22;;;33.46;53.06
36798;BME280;22748;8.426;99.512;2023-06-04T07:22:49;100400.16;;;33.51;52.60
36798;BME280;22748;8.426;99.512;2023-06-04T07:25:20;100406.56;;;33.45;53.39
36798;BME280;22748;8.426;99.512;2023-06-04T07:27:52;100408.56;;;33.49;53.04
36798;BME280;22748;8.426;99.512;2023-06-04T07:30:27;100404.03;;;33.55;52.97
36798;BME280;22748;8.426;99.512;2023-06-04T07:32:58;100396.88;;;33.49;53.00
36798;BME280;22748;8.426;99.512;2023-06-04T07:35:28;100394.84;;;33.56;53.15
36798;BME280;22748;8.426;99.512;2023-06-04T07:38:00;100384.13;;;33.61;52.85
36798;BME280;22748;8.426;99.512;2023-06-04T07:40:33;100386.25;;;33.59;52.40
36798;BME280;22748;8.426;99.512;2023-06-04T07:43:05;100377.97;;;33.66;51.68
36798;BME280;22748;8.426;99.512;2023-06-04T07:45:37;100369.19;;;33.75;51.77
36798;BME280;22748;8.426;99.512;2023-06-04T07:48:10;100376.63;;;33.68;52.09
36798;BME280;22748;8.426;99.512;2023-06-04T07:50:42;100367.47;;;33.69;52.35
36798;BME280;22748;8.426;99.512;2023-06-04T07:53:11;100359.63;;;33.73;51.84
36798;BME280;22748;8.426;99.512;2023-06-04T07:55:41;100358.81;;;33.72;52.09
36798;BME280;22748;8.426;99.512;2023-06-04T07:58:12;100355.06;;;33.73;51.59
36798;BME280;22748;8.426;99.512;2023-06-04T08:00:46;100352.41;;;33.78;50.96
36798;BME280;22748;8.426;99.512;2023-06-04T08:03:18;100347.63;;;33.86;50.86
36798;BME280;22748;8.426;99.512;2023-06-04T08:05:50;100346.50;;;33.81;51.56
36798;BME280;22748;8.426;99.512;2023-06-04T08:08:20;100349.28;;;33.87;51.36
36798;BME280;22748;8.426;99.512;2023-06-04T08:10:50;100333.91;;;33.92;51.13
36798;BME280;22748;8.426;99.512;2023-06-04T08:13:20;100333.16;;;33.97;51.03
36798;BME280;22748;8.426;99.512;2023-06-04T08:15:51;100334.28;;;34.01;51.12
36798;BME280;22748;8.426;99.512;2023-06-04T08:18:22;100338.16;;;34.05;50.89
36798;BME280;22748;8.426;99.512;2023-06-04T08:20:55;100333.47;;;34.00;50.78
36798;BME280;22748;8.426;99.512;2023-06-04T08:23:24;100334.00;;;33.97;51.12
36798;BME280;22748;8.426;99.512;2023-06-04T08:25:54;100332.09;;;33.98;51.49
36798;BME280;22748;8.426;99.512;2023-06-04T08:28:25;100318.31;;;33.99;51.05
36798;BME280;22748;8.426;99.512;2023-06-04T08:30:57;100317.56;;;34.04;50.99
36798;BME280;22748;8.426;99.512;2023-06-04T08:33:29;100312.38;;;34.03;51.19
36798;BME280;22748;8.426;99.512;2023-06-04T08:36:02;100314.28;;;34.02;51.13
36798;BME280;22748;8.426;99.512;2023-06-04T08:38:34;100307.19;;;34.01;51.58
36798;BME280;22748;8.426;99.512;2023-06-04T08:41:12;100305.56;;;34.00;51.69
36798;BME280;22748;8.426;99.512;2023-06-04T08:43:45;100303.72;;;34.06;51.57
36798;BME280;22748;8.426;99.512;2023-06-04T08:46:20;100294.88;;;34.10;51.09
36798;BME280;22748;8.426;99.512;2023-06-04T08:48:51;100286.31;;;34.18;50.87
36798;BME280;22748;8.426;99.512;2023-06-04T08:51:22;100290.38;;;34.21;51.21
36798;BME280;22748;8.426;99.512;2023-06-04T08:53:55;100295.44;;;34.12;51.58
36798;BME280;22748;8.426;99.512;2023-06-04T08:56:28;100301.28;;;34.04;51.45
36798;BME280;22748;8.426;99.512;2023-06-04T08:59:02;100292.09;;;34.05;50.83
36798;BME280;22748;8.426;99.512;2023-06-04T09:01:37;100284.28;;;34.09;50.74
36798;BME280;22748;8.426;99.512;2023-06-04T09:04:10;100282.38;;;34.09;50.17
36798;BME280;22748;8.426;99.512;2023-06-04T09:06:43;100282.13;;;33.89;50.96
36798;BME280;22748;8.426;99.512;2023-06-04T09:09:13;100277.34;;;33.96;50.50
36798;BME280;22748;8.426;99.512;2023-06-04T09:11:50;100278.25;;;34.01;50.76
36798;BME280;22748;8.426;99.512;2023-06-04T09:14:22;100270.72;;;34.09;49.49
36798;BME280;22748;8.426;99.512;2023-06-04T09:16:57;100270.41;;;34.05;50.34
36798;BME280;22748;8.426;99.512;2023-06-04T09:19:28;100271.53;;;34.09;49.70
36798;BME280;22748;8.426;99.512;2023-06-04T09:22:00;100268.41;;;34.17;49.65
36798;BME280;22748;8.426;99.512;2023-06-04T09:24:41;100267.91;;;34.20;49.43
36798;BME280;22748;8.426;99.512;2023-06-04T09:27:19;100266.88;;;34.27;49.27
36798;BME280;22748;8.426;99.512;2023-06-04T09:29:54;100275.59;;;34.29;49.17
36798;BME280;22748;8.426;99.512;2023-06-04T09:32:28;100277.94;;;34.20;49.32
36798;BME280;22748;8.426;99.512;2023-06-04T09:35:10;100283.66;;;34.24;49.14
36798;BME280;22748;8.426;99.512;2023-06-04T09:37:42;100278.25;;;34.24;48.91
36798;BME280;22748;8.426;99.512;2023-06-04T09:40:13;100274.78;;;34.28;48.82
36798;BME280;22748;8.426;99.512;2023-06-04T09:42:45;100263.59;;;34.25;49.29
36798;BME280;22748;8.426;99.512;2023-06-04T09:45:28;100263.13;;;34.28;49.14
36798;BME280;22748;8.426;99.512;2023-06-04T09:48:00;100258.19;;;34.25;49.05
36798;BME280;22748;8.426;99.512;2023-06-04T09:50:32;100267.84;;;34.15;49.16
36798;BME280;22748;8.426;99.512;2023-06-04T09:53:14;100264.81;;;34.12;48.72
36798;BME280;22748;8.426;99.512;2023-06-04T09:55:57;100269.59;;;34.05;49.09
36798;BME280;22748;8.426;99.512;2023-06-04T09:58:30;100260.09;;;34.02;49.11
36798;BME280;22748;8.426;99.512;2023-06-04T10:01:04;100267.03;;;33.93;49.19
36798;BME280;22748;8.426;99.512;2023-06-04T10:03:38;100265.13;;;33.93;48.90
36798;BME280;22748;8.426;99.512;2023-06-04T10:06:14;100270.84;;;33.97;49.08
36798;BME280;22748;8.426;99.512;2023-06-04T10:08:44;100275.19;;;33.98;49.09
36798;BME280;22748;8.426;99.512;2023-06-04T10:11:20;100273.06;;;34.00;48.63
36798;BME280;22748;8.426;99.512;2023-06-04T10:13:53;100288.94;;;33.91;48.88
36798;BME280;22748;8.426;99.512;2023-06-04T10:16:26;100291.88;;;33.90;49.08
36798;BME280;22748;8.426;99.512;2023-06-04T10:19:00;100299.53;;;33.93;48.83
36798;BME280;22748;8.426;99.512;2023-06-04T10:21:31;100298.69;;;33.92;48.80
36798;BME280;22748;8.426;99.512;2023-06-04T10:24:04;100299.78;;;33.91;48.94
36798;BME280;22748;8.426;99.512;2023-06-04T10:26:35;100298.25;;;33.78;49.20
36798;BME280;22748;8.426;99.512;2023-06-04T10:29:08;100300.53;;;33.87;49.03
36798;BME280;22748;8.426;99.512;2023-06-04T10:31:38;100302.59;;;33.79;49.46
36798;BME280;22748;8.426;99.512;2023-06-04T10:34:12;100303.53;;;33.90;49.25
36798;BME280;22748;8.426;99.512;2023-06-04T10:36:46;100300.97;;;34.00;49.21
36798;BME280;22748;8.426;99.512;2023-06-04T10:39:26;100307.00;;;34.08;48.98
36798;BME280;22748;8.426;99.512;2023-06-04T10:42:00;100304.13;;;34.14;49.23
36798;BME280;22748;8.426;99.512;2023-06-04T10:44:52;100310.00;;;34.06;49.54
36798;BME280;22748;8.426;99.512;2023-06-04T10:47:23;100314.91;;;34.09;49.64
36798;BME280;22748;8.426;99.512;2023-06-04T10:50:08;100312.13;;;34.04;49.77
36798;BME280;22748;8.426;99.512;2023-06-04T10:52:51;100319.19;;;34.05;50.12
36798;BME280;22748;8.426;99.512;2023-06-04T10:55:22;100319.84;;;34.12;49.52
36798;BME280;22748;8.426;99.512;2023-06-04T10:57:54;100320.16;;;34.16;49.63
36798;BME280;22748;8.426;99.512;2023-06-04T11:00:36;100330.75;;;34.17;49.46
36798;BME280;22748;8.426;99.512;2023-06-04T11:03:07;100336.41;;;34.16;49.66
36798;BME280;22748;8.426;99.512;2023-06-04T11:05:41;100335.59;;;34.15;49.66
36798;BME280;22748;8.426;99.512;2023-06-04T11:08:13;100340.50;;;34.18;49.87
36798;BME280;22748;8.426;99.512;2023-06-04T11:10:45;100342.41;;;34.18;49.51
36798;BME280;22748;8.426;99.512;2023-06-04T11:13:23;100346.78;;;34.19;49.61
36798;BME280;22748;8.426;99.512;2023-06-04T11:15:55;100357.09;;;34.22;49.77
36798;BME280;22748;8.426;99.512;2023-06-04T11:18:26;100368.19;;;34.20;49.79
36798;BME280;22748;8.426;99.512;2023-06-04T11:21:00;100358.34;;;34.14;49.90
36798;BME280;22748;8.426;99.512;2023-06-04T11:23:33;100358.84;;;34.11;49.95
36798;BME280;22748;8.426;99.512;2023-06-04T11:26:04;100355.53;;;34.09;50.06
36798;BME280;22748;8.426;99.512;2023-06-04T11:28:39;100353.25;;;34.01;49.95
36798;BME280;22748;8.426;99.512;2023-06-04T11:31:25;100358.09;;;33.99;49.81
36798;BME280;22748;8.426;99.512;2023-06-04T11:33:56;100356.53;;;34.03;49.82
36798;BME280;22748;8.426;99.512;2023-06-04T11:36:28;100360.91;;;34.04;50.06
36798;BME280;22748;8.426;99.512;2023-06-04T11:39:00;100362.53;;;34.05;49.83
36798;BME280;22748;8.426;99.512;2023-06-04T11:41:35;100370.91;;;34.04;49.81
36798;BME280;22748;8.426;99.512;2023-06-04T11:44:06;100365.19;;;34.00;50.12
36798;BME280;22748;8.426;99.512;2023-06-04T11:46:40;100366.81;;;34.01;50.06
36798;BME280;22748;8.426;99.512;2023-06-04T11:49:15;100357.28;;;33.98;49.94
36798;BME280;22748;8.426;99.512;2023-06-04T11:51:51;100361.91;;;33.98;49.84
36798;BME280;22748;8.426;99.512;2023-06-04T11:54:22;100368.94;;;33.99;49.71
36798;BME280;22748;8.426;99.512;2023-06-04T11:56:54;100373.56;;;33.98;49.64
36798;BME280;22748;8.426;99.512;2023-06-04T11:59:26;100379.22;;;33.97;49.74
36798;BME280;22748;8.426;99.512;2023-06-04T12:01:57;100378.41;;;33.96;49.42
36798;BME280;22748;8.426;99.512;2023-06-04T12:04:30;100393.03;;;33.95;49.98
36798;BME280;22748;8.426;99.512;2023-06-04T12:07:05;100393.28;;;33.94;50.17
36798;BME280;22748;8.426;99.512;2023-06-04T12:09:37;100399.19;;;33.91;50.44
36798;BME280;22748;8.426;99.512;2023-06-04T12:12:09;100391.31;;;33.89;50.70
36798;BME280;22748;8.426;99.512;2023-06-04T12:14:40;100404.28;;;33.87;50.92
36798;BME280;22748;8.426;99.512;2023-06-04T12:17:13;100410.22;;;33.84;51.05
36798;BME280;22748;8.426;99.512;2023-06-04T12:19:47;100418.56;;;33.83;51.40
36798;BME280;22748;8.426;99.512;2023-06-04T12:22:20;100421.28;;;33.83;51.20
36798;BME280;22748;8.426;99.512;2023-06-04T12:24:52;100419.38;;;33.83;51.17
36798;BME280;22748;8.426;99.512;2023-06-04T12:27:25;100429.41;;;33.83;51.30
36798;BME280;22748;8.426;99.512;2023-06-04T12:29:59;100430.78;;;33.85;51.73
36798;BME280;22748;8.426;99.512;2023-06-04T12:32:34;100441.63;;;33.85;51.69
36798;BME280;22748;8.426;99.512;2023-06-04T12:35:05;100434.81;;;33.83;51.60
36798;BME280;22748;8.426;99.512;2023-06-04T12:37:40;100433.16;;;33.81;51.74
36798;BME280;22748;8.426;99.512;2023-06-04T12:40:12;100433.44;;;33.80;51.72
36798;BME280;22748;8.426;99.512;2023-06-04T12:42:42;100426.06;;;33.75;51.43
36798;BME280;22748;8.426;99.512;2023-06-04T12:45:14;100426.53;;;33.72;51.61
36798;BME280;22748;8.426;99.512;2023-06-04T12:47:44;100436.78;;;33.70;51.70
36798;BME280;22748;8.426;99.512;2023-06-04T12:50:16;100443.28;;;33.69;51.92
36798;BME280;22748;8.426;99.512;2023-06-04T12:52:48;100448.13;;;33.67;51.83
36798;BME280;22748;8.426;99.512;2023-06-04T12:55:20;100447.31;;;33.67;51.81
36798;BME280;22748;8.426;99.512;2023-06-04T12:57:50;100443.19;;;33.64;52.02
36798;BME280;22748;8.426;99.512;2023-06-04T13:00:21;100446.97;;;33.63;52.03
36798;BME280;22748;8.426;99.512;2023-06-04T13:02:51;100464.66;;;33.54;52.09
36798;BME280;22748;8.426;99.512;2023-06-04T13:05:22;100468.78;;;33.56;52.09
36798;BME280;22748;8.426;99.512;2023-06-04T13:07:55;100471.72;;;33.55;52.33
36798;BME280;22748;8.426;99.512;2023-06-04T13:10:31;100473.38;;;33.56;52.25
36798;BME280;22748;8.426;99.512;2023-06-04T13:13:02;100484.69;;;33.53;52.33
36798;BME280;22748;8.426;99.512;2023-06-04T13:15:34;100482.47;;;33.50;52.51
36798;BME280;22748;8.426;99.512;2023-06-04T13:18:05;100483.19;;;33.45;52.80